createdAt,value
2023-05-20T00:00:08.814Z,9.50
2023-05-20T00:00:20.944Z,13.30
2023-05-20T00:00:33.017Z,20.30
2023-05-20T00:00:46.508Z,27.15
2023-05-20T00:00:58.687Z,28.40
2023-05-20T00:01:11.440Z,23.92
2023-05-20T00:01:23.543Z,17.73
2023-05-20T00:01:36.676Z,13.15
2023-05-20T00:01:48.886Z,10.32
2023-05-20T00:02:01.175Z,9.15
2023-05-20T00:02:13.383Z,9.00
2023-05-20T00:02:25.657Z,8.32
2023-05-20T00:02:38.379Z,7.53
2023-05-20T00:02:50.715Z,6.65
2023-05-20T00:03:03.919Z,6.53
2023-05-20T00:03:16.313Z,5.93
2023-05-20T00:03:29.694Z,5.35
2023-05-20T00:03:42.447Z,5.32
2023-05-20T00:03:54.820Z,5.72
2023-05-20T00:04:07.281Z,6.82
2023-05-20T00:04:19.634Z,8.95
2023-05-20T00:04:32.814Z,10.35
2023-05-20T00:04:45.053Z,10.52
2023-05-20T00:04:57.165Z,9.82
2023-05-20T00:05:09.914Z,9.18
2023-05-20T00:05:22.024Z,8.07
2023-05-20T00:05:34.108Z,7.88
2023-05-20T00:05:46.454Z,7.70
2023-05-20T00:05:59.520Z,7.25
2023-05-20T00:06:13.009Z,6.75
2023-05-20T00:06:25.240Z,5.55
2023-05-20T00:06:37.342Z,4.93
2023-05-20T00:06:49.437Z,4.82
2023-05-20T00:07:01.541Z,4.43
2023-05-20T00:07:13.633Z,4.43
2023-05-20T00:07:26.138Z,3.80
2023-05-20T00:07:39.288Z,3.77
2023-05-20T00:07:51.399Z,4.25
2023-05-20T00:08:07.310Z,5.50
2023-05-20T00:08:19.898Z,7.05
2023-05-20T00:08:32.000Z,7.15
2023-05-20T00:08:44.201Z,6.40
2023-05-20T00:08:56.336Z,6.05
2023-05-20T00:09:09.932Z,5.20
2023-05-20T00:09:22.307Z,4.35
2023-05-20T00:09:34.361Z,3.90
2023-05-20T00:09:46.473Z,3.95
2023-05-20T00:09:58.591Z,3.92
2023-05-20T00:10:11.413Z,3.70
2023-05-20T00:10:23.540Z,3.50
2023-05-20T00:10:36.923Z,3.33
2023-05-20T00:10:49.024Z,3.38
2023-05-20T00:11:01.109Z,3.25
2023-05-20T00:11:13.250Z,3.58
2023-05-20T00:11:26.210Z,3.80
2023-05-20T00:11:39.234Z,3.90
2023-05-20T00:11:51.319Z,4.25
2023-05-20T00:12:03.500Z,4.45
2023-05-20T00:12:15.626Z,4.30
2023-05-20T00:12:27.728Z,3.80
2023-05-20T00:12:39.961Z,3.45
2023-05-20T00:12:52.050Z,3.10
2023-05-20T00:13:06.545Z,3.00
2023-05-20T00:13:18.623Z,2.95
2023-05-20T00:13:30.683Z,2.83
2023-05-20T00:13:42.736Z,2.78
2023-05-20T00:13:54.929Z,2.78
2023-05-20T00:14:07.145Z,2.85
2023-05-20T00:14:19.303Z,3.20
2023-05-20T00:14:32.507Z,2.95
2023-05-20T00:14:44.732Z,2.80
2023-05-20T00:14:56.915Z,2.63
2023-05-20T00:15:12.070Z,2.55
2023-05-20T00:15:24.301Z,2.58
2023-05-20T00:15:36.940Z,2.42
2023-05-20T00:15:49.192Z,2.58
2023-05-20T00:16:03.306Z,2.70
2023-05-20T00:16:16.589Z,2.78
2023-05-20T00:16:28.720Z,2.88
2023-05-20T00:16:41.798Z,2.70
2023-05-20T00:16:54.010Z,2.78
2023-05-20T00:17:06.203Z,2.92
2023-05-20T00:17:18.301Z,2.80
2023-05-20T00:17:31.310Z,2.70
2023-05-20T00:17:43.480Z,2.78
2023-05-20T00:17:56.772Z,2.88
2023-05-20T00:18:08.905Z,3.00
2023-05-20T00:18:21.002Z,2.90
2023-05-20T00:18:33.118Z,3.25
2023-05-20T00:18:45.185Z,3.25
2023-05-20T00:18:57.420Z,3.25
2023-05-20T00:19:10.651Z,3.03
2023-05-20T00:19:22.881Z,3.15
2023-05-20T00:19:35.018Z,3.17
2023-05-20T00:19:47.141Z,3.08
2023-05-20T00:20:00.128Z,3.22
2023-05-20T00:20:13.100Z,3.15
2023-05-20T00:20:25.286Z,3.05
2023-05-20T00:20:38.364Z,2.85
2023-05-20T00:20:51.108Z,2.72
2023-05-20T00:21:03.360Z,2.60
2023-05-20T00:21:16.892Z,2.60
2023-05-20T00:21:29.625Z,2.38
2023-05-20T00:21:41.746Z,2.50
2023-05-20T00:21:53.893Z,2.58
2023-05-20T00:22:07.406Z,2.65
2023-05-20T00:22:19.650Z,2.70
2023-05-20T00:22:31.884Z,2.65
2023-05-20T00:22:44.067Z,2.75
2023-05-20T00:22:56.276Z,2.85
2023-05-20T00:23:08.418Z,2.88
2023-05-20T00:23:20.741Z,2.60
2023-05-20T00:23:33.799Z,2.60
2023-05-20T00:23:45.868Z,2.53
2023-05-20T00:23:58.667Z,2.55
2023-05-20T00:24:10.804Z,2.60
2023-05-20T00:24:22.891Z,2.75
2023-05-20T00:24:34.979Z,2.45
2023-05-20T00:24:47.064Z,2.72
2023-05-20T00:25:00.684Z,2.72
2023-05-20T00:25:14.735Z,2.70
2023-05-20T00:25:26.954Z,2.85
2023-05-20T00:25:39.132Z,2.97
2023-05-20T00:25:51.242Z,2.55
2023-05-20T00:26:04.981Z,2.40
2023-05-20T00:26:17.230Z,2.60
2023-05-20T00:26:30.832Z,2.67
2023-05-20T00:26:42.930Z,2.70
2023-05-20T00:26:55.037Z,2.70
2023-05-20T00:27:07.116Z,2.40
2023-05-20T00:27:19.291Z,2.50
2023-05-20T00:27:31.448Z,2.58
2023-05-20T00:27:43.517Z,2.42
2023-05-20T00:27:56.612Z,2.53
2023-05-20T00:28:08.671Z,2.55
2023-05-20T00:28:21.174Z,2.50
2023-05-20T00:28:33.283Z,2.70
2023-05-20T00:28:45.360Z,2.80
2023-05-20T00:28:57.425Z,2.70
2023-05-20T00:29:09.503Z,2.80
2023-05-20T00:29:23.166Z,2.72
2023-05-20T00:29:35.561Z,2.67
2023-05-20T00:29:47.657Z,2.47
2023-05-20T00:29:59.726Z,2.53
2023-05-20T00:30:12.760Z,2.47
2023-05-20T00:30:24.911Z,2.72
2023-05-20T00:30:39.832Z,2.80
2023-05-20T00:30:52.914Z,2.60
2023-05-20T00:31:06.632Z,2.55
2023-05-20T00:31:18.741Z,2.70
2023-05-20T00:31:30.892Z,2.78
2023-05-20T00:31:43.029Z,2.78
2023-05-20T00:31:55.223Z,2.55
2023-05-20T00:32:09.069Z,2.60
2023-05-20T00:32:21.350Z,3.00
2023-05-20T00:32:34.131Z,3.03
2023-05-20T00:32:46.413Z,2.58
2023-05-20T00:32:58.599Z,2.30
2023-05-20T00:33:10.753Z,2.40
2023-05-20T00:33:22.905Z,2.53
2023-05-20T00:33:36.327Z,2.53
2023-05-20T00:33:49.415Z,2.63
2023-05-20T00:34:01.579Z,2.83
2023-05-20T00:34:13.725Z,2.70
2023-05-20T00:34:26.030Z,2.72
2023-05-20T00:34:38.119Z,2.70
2023-05-20T00:34:57.353Z,2.65
2023-05-20T00:35:10.942Z,2.67
2023-05-20T00:35:24.205Z,2.83
2023-05-20T00:35:36.702Z,2.85
2023-05-20T00:35:48.937Z,2.95
2023-05-20T00:36:01.022Z,2.72
2023-05-20T00:36:13.255Z,2.50
2023-05-20T00:36:27.317Z,2.50
2023-05-20T00:36:39.439Z,2.72
2023-05-20T00:36:51.921Z,2.70
2023-05-20T00:37:05.048Z,2.58
2023-05-20T00:37:17.134Z,2.70
2023-05-20T00:37:29.267Z,3.03
2023-05-20T00:37:41.376Z,2.92
2023-05-20T00:37:53.441Z,2.78
2023-05-20T00:38:05.882Z,2.60
2023-05-20T00:38:18.564Z,2.72
2023-05-20T00:38:30.643Z,2.80
2023-05-20T00:38:42.716Z,2.45
2023-05-20T00:38:55.912Z,2.30
2023-05-20T00:39:07.982Z,2.50
2023-05-20T00:39:20.268Z,2.67
2023-05-20T00:39:32.352Z,2.60
2023-05-20T00:39:44.442Z,2.70
2023-05-20T00:39:56.659Z,2.58
2023-05-20T00:40:11.292Z,2.35
2023-05-20T00:40:25.095Z,2.30
2023-05-20T00:40:37.248Z,2.43
2023-05-20T00:40:49.424Z,2.45
2023-05-20T00:41:01.613Z,2.50
2023-05-20T00:41:13.770Z,2.45
2023-05-20T00:41:26.241Z,2.75
2023-05-20T00:41:39.418Z,3.28
2023-05-20T00:41:51.548Z,3.20
2023-05-20T00:42:03.829Z,2.42
2023-05-20T00:42:21.556Z,2.40
2023-05-20T00:42:33.759Z,2.35
2023-05-20T00:42:45.984Z,2.38
2023-05-20T00:42:58.131Z,2.50
2023-05-20T00:43:11.182Z,2.45
2023-05-20T00:43:25.521Z,2.40
2023-05-20T00:43:37.654Z,2.60
2023-05-20T00:43:53.526Z,2.50
2023-05-20T00:44:05.626Z,2.60
2023-05-20T00:44:18.710Z,2.85
2023-05-20T00:44:30.791Z,2.47
2023-05-20T00:44:43.056Z,2.50
2023-05-20T00:44:56.859Z,2.50
2023-05-20T00:45:10.369Z,2.50
2023-05-20T00:45:22.861Z,2.63
2023-05-20T00:45:35.323Z,2.60
2023-05-20T00:45:48.003Z,2.50
2023-05-20T00:46:01.296Z,2.65
2023-05-20T00:46:14.279Z,2.40
2023-05-20T00:46:29.697Z,2.35
2023-05-20T00:46:41.953Z,2.50
2023-05-20T00:46:54.549Z,2.50
2023-05-20T00:47:06.800Z,2.40
2023-05-20T00:47:21.554Z,2.47
2023-05-20T00:47:34.646Z,2.40
2023-05-20T00:47:47.106Z,2.35
2023-05-20T00:48:01.603Z,2.33
2023-05-20T00:48:14.935Z,2.55
2023-05-20T00:48:33.066Z,2.70
2023-05-20T00:48:45.449Z,2.40
2023-05-20T00:48:58.377Z,2.38
2023-05-20T00:49:10.486Z,2.42
2023-05-20T00:49:23.680Z,2.38
2023-05-20T00:49:35.797Z,2.40
2023-05-20T00:49:50.958Z,2.42
2023-05-20T00:50:05.829Z,2.53
2023-05-20T00:50:18.386Z,2.33
2023-05-20T00:50:30.678Z,2.28
2023-05-20T00:50:42.816Z,2.75
2023-05-20T00:50:54.957Z,2.92
2023-05-20T00:51:07.724Z,2.90
2023-05-20T00:51:21.953Z,2.55
2023-05-20T00:51:35.516Z,2.45
2023-05-20T00:51:47.796Z,2.63
2023-05-20T00:51:59.976Z,2.45
2023-05-20T00:52:12.835Z,2.25
2023-05-20T00:52:26.135Z,2.42
2023-05-20T00:52:39.052Z,2.63
2023-05-20T00:52:52.216Z,2.50
2023-05-20T00:53:04.627Z,2.38
2023-05-20T00:53:18.468Z,2.50
2023-05-20T00:53:30.613Z,2.50
2023-05-20T00:53:43.908Z,2.55
2023-05-20T00:53:56.723Z,2.47
2023-05-20T00:54:08.988Z,2.30
2023-05-20T00:54:23.070Z,2.30
2023-05-20T00:54:35.557Z,2.53
2023-05-20T00:54:47.968Z,2.47
2023-05-20T00:55:00.471Z,2.38
2023-05-20T00:55:12.677Z,2.50
2023-05-20T00:55:25.745Z,2.80
2023-05-20T00:55:39.573Z,2.63
2023-05-20T00:55:51.743Z,2.50
2023-05-20T00:56:05.111Z,2.63
2023-05-20T00:56:18.063Z,2.60
2023-05-20T00:56:30.341Z,2.78
2023-05-20T00:56:43.168Z,2.97
2023-05-20T00:56:55.343Z,2.80
2023-05-20T00:57:09.337Z,2.42
2023-05-20T00:57:21.593Z,2.63
2023-05-20T00:57:33.660Z,2.60
2023-05-20T00:57:45.814Z,2.55
2023-05-20T00:57:58.184Z,2.60
2023-05-20T00:58:10.821Z,2.50
2023-05-20T00:58:23.261Z,2.40
2023-05-20T00:58:36.794Z,2.50
2023-05-20T00:58:50.508Z,2.40
2023-05-20T00:59:02.975Z,2.50
2023-05-20T00:59:15.711Z,2.45
2023-05-20T00:59:27.803Z,2.40
2023-05-20T00:59:41.778Z,2.38
2023-05-20T00:59:55.352Z,2.38
2023-05-20T01:00:10.526Z,2.38
2023-05-20T01:00:23.853Z,2.35
2023-05-20T01:00:36.247Z,2.42
2023-05-20T01:00:48.442Z,2.60
2023-05-20T01:01:00.620Z,2.40
2023-05-20T01:01:13.416Z,2.35
2023-05-20T01:01:25.738Z,2.55
2023-05-20T01:01:37.896Z,2.60
2023-05-20T01:01:50.192Z,2.70
2023-05-20T01:02:03.529Z,2.70
2023-05-20T01:02:17.334Z,2.60
2023-05-20T01:02:29.962Z,2.42
2023-05-20T01:02:42.256Z,2.30
2023-05-20T01:02:56.427Z,2.50
2023-05-20T01:03:08.900Z,2.70
2023-05-20T01:03:22.269Z,2.55
2023-05-20T01:03:35.162Z,2.38
2023-05-20T01:03:49.055Z,2.20
2023-05-20T01:04:01.480Z,2.50
2023-05-20T01:04:13.916Z,2.50
2023-05-20T01:04:26.083Z,2.75
2023-05-20T01:04:38.394Z,2.83
2023-05-20T01:04:50.739Z,2.60
2023-05-20T01:05:03.288Z,2.50
2023-05-20T01:05:15.435Z,2.63
2023-05-20T01:05:28.718Z,2.67
2023-05-20T01:05:42.380Z,2.30
2023-05-20T01:05:54.801Z,2.25
2023-05-20T01:06:06.966Z,2.40
2023-05-20T01:06:19.150Z,2.50
2023-05-20T01:06:31.255Z,2.45
2023-05-20T01:06:46.251Z,2.30
2023-05-20T01:07:00.574Z,2.63
2023-05-20T01:07:15.854Z,2.55
2023-05-20T01:07:27.995Z,2.38
2023-05-20T01:07:40.249Z,2.33
2023-05-20T01:07:52.627Z,2.50
2023-05-20T01:08:05.178Z,2.50
2023-05-20T01:08:17.287Z,2.30
2023-05-20T01:08:30.472Z,2.60
2023-05-20T01:08:42.787Z,2.85
2023-05-20T01:08:55.052Z,2.67
2023-05-20T01:09:08.040Z,2.78
2023-05-20T01:09:20.155Z,2.60
2023-05-20T01:09:32.846Z,2.42
2023-05-20T01:09:45.729Z,2.33
2023-05-20T01:09:59.218Z,2.50
2023-05-20T01:10:11.913Z,2.65
2023-05-20T01:10:27.949Z,2.53
2023-05-20T01:10:46.527Z,2.30
2023-05-20T01:11:06.491Z,2.40
2023-05-20T01:11:26.662Z,2.17
2023-05-20T01:11:45.929Z,2.17
2023-05-20T01:12:09.301Z,2.47
2023-05-20T01:12:26.446Z,2.85
2023-05-20T01:12:43.952Z,2.90
2023-05-20T01:13:00.873Z,2.58
2023-05-20T01:13:20.205Z,2.50
2023-05-20T01:13:41.454Z,2.50
2023-05-20T01:13:58.212Z,2.80
2023-05-20T01:14:13.560Z,2.60
2023-05-20T01:14:30.312Z,2.30
2023-05-20T01:14:49.053Z,2.60
2023-05-20T01:15:09.567Z,2.78
2023-05-20T01:15:26.232Z,2.47
2023-05-20T01:15:40.880Z,2.20
2023-05-20T01:15:56.079Z,1.98
2023-05-20T01:16:10.952Z,2.22
2023-05-20T01:16:25.892Z,2.45
2023-05-20T01:16:39.653Z,2.50
2023-05-20T01:16:55.476Z,2.58
2023-05-20T01:17:11.123Z,2.72
2023-05-20T01:17:27.324Z,2.70
2023-05-20T01:17:45.195Z,2.38
2023-05-20T01:18:02.558Z,2.17
2023-05-20T01:18:18.409Z,2.47
2023-05-20T01:18:32.759Z,2.70
2023-05-20T01:18:50.618Z,2.47
2023-05-20T01:19:04.063Z,2.50
2023-05-20T01:19:27.868Z,2.50
2023-05-20T01:19:44.471Z,2.38
2023-05-20T01:20:00.184Z,2.45
2023-05-20T01:20:14.227Z,2.67
2023-05-20T01:20:26.685Z,2.55
2023-05-20T01:20:39.470Z,2.28
2023-05-20T01:20:54.678Z,2.38
2023-05-20T01:21:12.744Z,2.40
2023-05-20T01:21:25.270Z,2.50
2023-05-20T01:21:38.804Z,2.63
2023-05-20T01:21:54.555Z,2.70
2023-05-20T01:22:08.258Z,2.53
2023-05-20T01:22:25.140Z,2.35
2023-05-20T01:22:37.935Z,2.60
2023-05-20T01:22:54.833Z,2.60
2023-05-20T01:23:06.978Z,2.47
2023-05-20T01:23:19.129Z,2.50
2023-05-20T01:23:38.150Z,2.65
2023-05-20T01:23:50.262Z,2.72
2023-05-20T01:24:04.093Z,2.50
2023-05-20T01:24:17.135Z,2.40
2023-05-20T01:24:29.251Z,2.67
2023-05-20T01:24:42.970Z,2.72
2023-05-20T01:24:55.480Z,2.65
2023-05-20T01:25:08.592Z,2.45
2023-05-20T01:25:20.982Z,2.63
2023-05-20T01:25:34.215Z,2.72
2023-05-20T01:25:46.537Z,2.70
2023-05-20T01:25:58.610Z,2.70
2023-05-20T01:26:13.900Z,2.80
2023-05-20T01:26:26.983Z,2.60
2023-05-20T01:26:39.740Z,2.38
2023-05-20T01:26:51.837Z,2.47
2023-05-20T01:27:06.107Z,2.67
2023-05-20T01:27:20.460Z,2.60
2023-05-20T01:27:32.633Z,2.75
2023-05-20T01:27:45.002Z,2.70
2023-05-20T01:27:58.131Z,2.45
2023-05-20T01:28:10.446Z,2.40
2023-05-20T01:28:22.549Z,2.50
2023-05-20T01:28:36.701Z,2.65
2023-05-20T01:28:49.241Z,2.60
2023-05-20T01:29:04.334Z,2.50
2023-05-20T01:29:18.736Z,2.60
2023-05-20T01:29:34.929Z,2.70
2023-05-20T01:29:50.492Z,2.50
2023-05-20T01:30:02.729Z,2.50
2023-05-20T01:30:15.628Z,2.80
2023-05-20T01:30:35.448Z,2.75
2023-05-20T01:30:53.425Z,2.67
2023-05-20T01:31:14.093Z,2.70
2023-05-20T01:31:34.124Z,2.60
2023-05-20T01:31:48.293Z,2.60
2023-05-20T01:32:03.258Z,2.80
2023-05-20T01:32:20.920Z,3.10
2023-05-20T01:32:38.680Z,2.65
2023-05-20T01:32:55.624Z,2.65
2023-05-20T01:33:11.579Z,2.80
2023-05-20T01:33:26.726Z,2.83
2023-05-20T01:33:41.281Z,2.65
2023-05-20T01:33:58.316Z,2.50
2023-05-20T01:34:11.054Z,2.50
2023-05-20T01:34:25.286Z,2.50
2023-05-20T01:34:39.295Z,2.60
2023-05-20T01:34:54.481Z,2.83
2023-05-20T01:35:08.144Z,2.88
2023-05-20T01:35:22.864Z,2.80
2023-05-20T01:35:36.550Z,2.78
2023-05-20T01:35:49.207Z,2.50
2023-05-20T01:36:01.646Z,2.60
2023-05-20T01:36:15.694Z,2.75
2023-05-20T01:36:29.301Z,2.75
2023-05-20T01:36:41.864Z,2.58
2023-05-20T01:36:55.393Z,2.50
2023-05-20T01:37:09.269Z,2.60
2023-05-20T01:37:25.420Z,2.40
2023-05-20T01:37:40.407Z,2.53
2023-05-20T01:37:55.135Z,2.70
2023-05-20T01:38:08.206Z,2.80
2023-05-20T01:38:22.061Z,2.90
2023-05-20T01:38:35.873Z,2.55
2023-05-20T01:38:49.751Z,2.80
2023-05-20T01:39:03.091Z,3.13
2023-05-20T01:39:15.443Z,3.00
2023-05-20T01:39:28.841Z,2.60
2023-05-20T01:39:42.965Z,2.65
2023-05-20T01:39:56.632Z,2.70
2023-05-20T01:40:10.408Z,2.50
2023-05-20T01:40:23.912Z,2.57
2023-05-20T01:40:36.527Z,3.08
2023-05-20T01:40:49.260Z,3.15
2023-05-20T01:41:04.531Z,2.90
2023-05-20T01:41:17.280Z,2.80
2023-05-20T01:41:30.305Z,2.70
2023-05-20T01:41:42.695Z,2.50
2023-05-20T01:41:55.929Z,2.63
2023-05-20T01:42:09.209Z,2.45
2023-05-20T01:42:21.856Z,2.50
2023-05-20T01:42:35.838Z,2.50
2023-05-20T01:42:53.212Z,2.70
2023-05-20T01:43:06.336Z,2.67
2023-05-20T01:43:18.712Z,2.58
2023-05-20T01:43:31.175Z,2.70
2023-05-20T01:43:44.749Z,2.80
2023-05-20T01:43:56.981Z,2.83
2023-05-20T01:44:10.253Z,2.90
2023-05-20T01:44:23.006Z,2.53
2023-05-20T01:44:35.537Z,2.38
2023-05-20T01:44:47.675Z,2.38
2023-05-20T01:45:00.115Z,2.58
2023-05-20T01:45:12.512Z,2.63
2023-05-20T01:45:26.172Z,2.70
2023-05-20T01:45:39.828Z,2.80
2023-05-20T01:45:51.965Z,2.70
2023-05-20T01:46:06.762Z,2.42
2023-05-20T01:46:18.947Z,2.70
2023-05-20T01:46:33.681Z,2.83
2023-05-20T01:46:49.698Z,2.78
2023-05-20T01:47:01.884Z,2.85
2023-05-20T01:47:15.092Z,3.00
2023-05-20T01:47:27.237Z,2.70
2023-05-20T01:47:39.522Z,2.50
2023-05-20T01:47:51.883Z,2.63
2023-05-20T01:48:04.777Z,2.78
2023-05-20T01:48:17.001Z,2.95
2023-05-20T01:48:29.092Z,2.80
2023-05-20T01:48:41.463Z,2.40
2023-05-20T01:48:53.561Z,2.20
2023-05-20T01:49:05.738Z,2.45
2023-05-20T01:49:18.824Z,2.63
2023-05-20T01:49:30.958Z,2.88
2023-05-20T01:49:43.140Z,3.00
2023-05-20T01:49:55.252Z,2.90
2023-05-20T01:50:09.147Z,2.90
2023-05-20T01:50:21.515Z,2.88
2023-05-20T01:50:34.579Z,2.53
2023-05-20T01:50:46.609Z,2.67
2023-05-20T01:50:58.700Z,2.60
2023-05-20T01:51:10.905Z,2.55
2023-05-20T01:51:23.149Z,2.75
2023-05-20T01:51:35.782Z,2.90
2023-05-20T01:51:47.902Z,2.53
2023-05-20T01:52:00.576Z,2.50
2023-05-20T01:52:13.801Z,2.53
2023-05-20T01:52:27.408Z,2.72
2023-05-20T01:52:39.716Z,2.90
2023-05-20T01:52:52.124Z,2.65
2023-05-20T01:53:04.446Z,2.40
2023-05-20T01:53:16.506Z,2.40
2023-05-20T01:53:29.249Z,2.45
2023-05-20T01:53:41.331Z,2.58
2023-05-20T01:53:54.717Z,2.70
2023-05-20T01:54:06.921Z,2.72
2023-05-20T01:54:19.172Z,2.75
2023-05-20T01:54:31.369Z,2.60
2023-05-20T01:54:43.408Z,2.60
2023-05-20T01:54:55.527Z,2.75
2023-05-20T01:55:09.551Z,3.08
2023-05-20T01:55:21.773Z,3.10
2023-05-20T01:55:34.222Z,2.65
2023-05-20T01:55:46.472Z,2.50
2023-05-20T01:55:58.646Z,2.70
2023-05-20T01:56:10.834Z,2.83
2023-05-20T01:56:22.965Z,2.72
2023-05-20T01:56:35.071Z,2.90
2023-05-20T01:56:47.616Z,3.00
2023-05-20T01:57:00.685Z,3.05
2023-05-20T01:57:12.746Z,2.72
2023-05-20T01:57:24.813Z,2.70
2023-05-20T01:57:37.060Z,2.67
2023-05-20T01:57:49.347Z,2.63
2023-05-20T01:58:01.464Z,2.50
2023-05-20T01:58:13.567Z,2.60
2023-05-20T01:58:26.720Z,2.60
2023-05-20T01:58:38.834Z,2.70
2023-05-20T01:58:50.910Z,2.65
2023-05-20T01:59:03.127Z,2.58
2023-05-20T01:59:15.373Z,2.50
2023-05-20T01:59:27.577Z,2.80
2023-05-20T01:59:39.633Z,2.75
2023-05-20T01:59:51.820Z,2.72
2023-05-20T02:00:06.234Z,2.80
2023-05-20T02:00:18.317Z,2.70
2023-05-20T02:00:32.129Z,2.60
2023-05-20T02:00:44.514Z,2.65
2023-05-20T02:00:56.630Z,2.65
2023-05-20T02:01:09.645Z,2.67
2023-05-20T02:01:21.999Z,2.80
2023-05-20T02:01:34.108Z,2.97
2023-05-20T02:01:47.205Z,2.97
2023-05-20T02:01:59.427Z,2.80
2023-05-20T02:02:11.634Z,3.00
2023-05-20T02:02:23.897Z,2.92
2023-05-20T02:02:36.431Z,3.10
2023-05-20T02:02:48.838Z,2.83
2023-05-20T02:03:01.103Z,2.78
2023-05-20T02:03:13.309Z,2.70
2023-05-20T02:03:26.537Z,2.70
2023-05-20T02:03:38.635Z,2.60
2023-05-20T02:03:50.855Z,2.45
2023-05-20T02:04:02.928Z,2.50
2023-05-20T02:04:15.010Z,2.53
2023-05-20T02:04:27.382Z,2.72
2023-05-20T02:04:39.560Z,2.80
2023-05-20T02:04:55.009Z,2.92
2023-05-20T02:05:09.049Z,2.88
2023-05-20T02:05:21.132Z,3.00
2023-05-20T02:05:33.525Z,3.15
2023-05-20T02:05:45.937Z,3.00
2023-05-20T02:05:58.015Z,2.80
2023-05-20T02:06:10.213Z,2.75
2023-05-20T02:06:22.362Z,2.70
2023-05-20T02:06:35.501Z,2.53
2023-05-20T02:06:47.578Z,2.40
2023-05-20T02:06:59.649Z,2.53
2023-05-20T02:07:11.718Z,2.55
2023-05-20T02:07:23.797Z,2.58
2023-05-20T02:07:37.312Z,2.47
2023-05-20T02:07:49.414Z,2.80
2023-05-20T02:08:02.529Z,2.85
2023-05-20T02:08:14.734Z,2.70
2023-05-20T02:08:26.973Z,2.78
2023-05-20T02:08:39.108Z,2.95
2023-05-20T02:08:51.204Z,3.00
2023-05-20T02:09:03.465Z,2.90
2023-05-20T02:09:15.818Z,2.88
2023-05-20T02:09:28.357Z,2.95
2023-05-20T02:09:41.595Z,2.90
2023-05-20T02:09:53.692Z,2.85
2023-05-20T02:10:07.367Z,3.13
2023-05-20T02:10:19.429Z,3.10
2023-05-20T02:10:31.508Z,2.97
2023-05-20T02:10:43.564Z,2.65
2023-05-20T02:10:55.804Z,2.63
2023-05-20T02:11:08.921Z,2.65
2023-05-20T02:11:21.904Z,2.75
2023-05-20T02:11:34.017Z,2.50
2023-05-20T02:11:46.109Z,2.58
2023-05-20T02:11:58.361Z,2.90
2023-05-20T02:12:16.375Z,2.90
2023-05-20T02:12:28.706Z,2.83
2023-05-20T02:12:41.782Z,2.80
2023-05-20T02:12:53.960Z,2.78
2023-05-20T02:13:06.079Z,2.80
2023-05-20T02:13:18.172Z,2.75
2023-05-20T02:13:30.543Z,2.78
2023-05-20T02:13:42.623Z,2.70
2023-05-20T02:13:54.720Z,2.63
2023-05-20T02:14:07.913Z,2.42
2023-05-20T02:14:20.125Z,2.72
2023-05-20T02:14:32.215Z,3.03
2023-05-20T02:14:44.963Z,3.10
2023-05-20T02:14:57.159Z,2.70
2023-05-20T02:15:10.201Z,2.67
2023-05-20T02:15:23.326Z,2.45
2023-05-20T02:15:35.549Z,2.63
2023-05-20T02:15:47.803Z,2.67
2023-05-20T02:15:59.915Z,2.47
2023-05-20T02:16:12.021Z,2.70
2023-05-20T02:16:24.216Z,2.80
2023-05-20T02:16:36.451Z,2.90
2023-05-20T02:16:49.670Z,2.85
2023-05-20T02:17:01.998Z,2.88
2023-05-20T02:17:16.243Z,2.90
2023-05-20T02:17:28.726Z,2.92
2023-05-20T02:17:43.643Z,2.92
2023-05-20T02:17:59.684Z,2.72
2023-05-20T02:18:12.702Z,2.67
2023-05-20T02:18:26.549Z,2.83
2023-05-20T02:18:38.783Z,2.63
2023-05-20T02:18:53.077Z,2.58
2023-05-20T02:19:05.262Z,2.67
2023-05-20T02:19:23.841Z,2.83
2023-05-20T02:19:36.167Z,2.47
2023-05-20T02:19:48.321Z,2.53
2023-05-20T02:20:00.419Z,2.88
2023-05-20T02:20:14.292Z,3.08
2023-05-20T02:20:26.370Z,2.80
2023-05-20T02:20:38.507Z,2.80
2023-05-20T02:20:50.603Z,2.60
2023-05-20T02:21:03.862Z,2.53
2023-05-20T02:21:16.143Z,2.40
2023-05-20T02:21:28.227Z,2.28
2023-05-20T02:21:41.548Z,2.30
2023-05-20T02:21:54.626Z,2.40
2023-05-20T02:22:07.365Z,2.55
2023-05-20T02:22:19.431Z,2.78
2023-05-20T02:22:31.501Z,2.72
2023-05-20T02:22:44.958Z,2.72
2023-05-20T02:22:57.023Z,2.63
2023-05-20T02:23:09.135Z,2.58
2023-05-20T02:23:21.263Z,2.42
2023-05-20T02:23:33.336Z,2.88
2023-05-20T02:23:45.475Z,3.00
2023-05-20T02:23:58.505Z,2.75
2023-05-20T02:24:10.642Z,2.50
2023-05-20T02:24:22.695Z,2.60
2023-05-20T02:24:34.782Z,2.90
2023-05-20T02:24:47.013Z,2.95
2023-05-20T02:24:59.234Z,3.22
2023-05-20T02:25:11.691Z,2.90
2023-05-20T02:25:23.760Z,2.77
2023-05-20T02:25:36.821Z,2.72
2023-05-20T02:25:48.897Z,2.63
2023-05-20T02:26:01.726Z,2.70
2023-05-20T02:26:14.049Z,2.97
2023-05-20T02:26:26.369Z,3.05
2023-05-20T02:26:38.443Z,2.75
2023-05-20T02:26:51.298Z,2.63
2023-05-20T02:27:04.812Z,2.50
2023-05-20T02:27:16.922Z,2.50
2023-05-20T02:27:29.046Z,2.50
2023-05-20T02:27:41.218Z,2.40
2023-05-20T02:27:53.349Z,2.55
2023-05-20T02:28:06.115Z,2.60
2023-05-20T02:28:19.903Z,2.63
2023-05-20T02:28:31.982Z,2.60
2023-05-20T02:28:46.825Z,2.60
2023-05-20T02:28:58.933Z,2.58
2023-05-20T02:29:11.146Z,2.67
2023-05-20T02:29:23.278Z,2.60
2023-05-20T02:29:35.580Z,2.90
2023-05-20T02:29:47.680Z,2.80
2023-05-20T02:30:00.728Z,2.75
2023-05-20T02:30:13.096Z,2.70
2023-05-20T02:30:26.176Z,2.78
2023-05-20T02:30:38.408Z,2.97
2023-05-20T02:30:51.129Z,2.97
2023-05-20T02:31:03.267Z,3.00
2023-05-20T02:31:16.091Z,2.92
2023-05-20T02:31:28.208Z,2.78
2023-05-20T02:31:40.401Z,2.60
2023-05-20T02:31:52.497Z,2.65
2023-05-20T02:32:06.446Z,2.70
2023-05-20T02:32:20.608Z,2.88
2023-05-20T02:32:33.618Z,2.80
2023-05-20T02:32:45.820Z,2.55
2023-05-20T02:32:58.022Z,2.65
2023-05-20T02:33:10.422Z,2.90
2023-05-20T02:33:22.603Z,3.10
2023-05-20T02:33:35.755Z,3.00
2023-05-20T02:33:47.945Z,2.83
2023-05-20T02:34:01.530Z,2.58
2023-05-20T02:34:13.716Z,2.60
2023-05-20T02:34:26.282Z,2.58
2023-05-20T02:34:39.054Z,2.70
2023-05-20T02:34:52.130Z,2.92
2023-05-20T02:35:05.034Z,3.00
2023-05-20T02:35:17.361Z,2.80
2023-05-20T02:35:29.438Z,2.90
2023-05-20T02:35:41.522Z,2.83
2023-05-20T02:35:53.605Z,3.00
2023-05-20T02:36:06.189Z,2.90
2023-05-20T02:36:18.294Z,2.70
2023-05-20T02:36:32.365Z,2.58
2023-05-20T02:36:44.545Z,2.60
2023-05-20T02:36:56.654Z,2.60
2023-05-20T02:37:08.748Z,2.67
2023-05-20T02:37:20.954Z,2.60
2023-05-20T02:37:34.397Z,2.53
2023-05-20T02:37:48.299Z,2.58
2023-05-20T02:38:00.405Z,2.65
2023-05-20T02:38:13.225Z,2.70
2023-05-20T02:38:25.607Z,2.80
2023-05-20T02:38:37.704Z,2.60
2023-05-20T02:38:49.914Z,2.70
2023-05-20T02:39:02.412Z,2.80
2023-05-20T02:39:15.570Z,2.75
2023-05-20T02:39:28.553Z,2.63
2023-05-20T02:39:40.892Z,2.70
2023-05-20T02:39:53.014Z,2.50
2023-05-20T02:40:09.203Z,2.45
2023-05-20T02:40:21.393Z,2.60
2023-05-20T02:40:34.515Z,2.58
2023-05-20T02:40:46.676Z,2.42
2023-05-20T02:40:59.891Z,2.50
2023-05-20T02:41:11.961Z,2.60
2023-05-20T02:41:24.261Z,2.70
2023-05-20T02:41:36.649Z,2.70
2023-05-20T02:41:48.855Z,2.90
2023-05-20T02:42:01.897Z,2.83
2023-05-20T02:42:14.016Z,2.75
2023-05-20T02:42:26.040Z,2.85
2023-05-20T02:42:38.218Z,3.05
2023-05-20T02:42:50.577Z,3.03
2023-05-20T02:43:03.092Z,3.03
2023-05-20T02:43:15.334Z,2.67
2023-05-20T02:43:28.412Z,2.60
2023-05-20T02:43:40.856Z,2.53
2023-05-20T02:43:52.944Z,2.50
2023-05-20T02:44:05.455Z,2.40
2023-05-20T02:44:18.123Z,2.40
2023-05-20T02:44:30.495Z,2.50
2023-05-20T02:44:42.621Z,2.45
2023-05-20T02:44:58.385Z,2.30
2023-05-20T02:45:11.706Z,2.60
2023-05-20T02:45:23.846Z,2.70
2023-05-20T02:45:36.106Z,2.50
2023-05-20T02:45:48.181Z,2.50
2023-05-20T02:46:00.505Z,2.50
2023-05-20T02:46:12.770Z,2.50
2023-05-20T02:46:25.023Z,2.47
2023-05-20T02:46:37.229Z,2.50
2023-05-20T02:46:50.362Z,2.45
2023-05-20T02:47:02.409Z,2.60
2023-05-20T02:47:14.732Z,2.60
2023-05-20T02:47:27.765Z,2.60
2023-05-20T02:47:39.973Z,2.80
2023-05-20T02:47:52.094Z,2.90
2023-05-20T02:48:04.693Z,2.72
2023-05-20T02:48:17.816Z,2.88
2023-05-20T02:48:29.925Z,2.90
2023-05-20T02:48:42.092Z,2.70
2023-05-20T02:48:54.250Z,2.78
2023-05-20T02:49:06.476Z,2.70
2023-05-20T02:49:18.576Z,2.60
2023-05-20T02:49:31.667Z,2.50
2023-05-20T02:49:43.782Z,2.63
2023-05-20T02:49:56.481Z,3.00
2023-05-20T02:50:09.193Z,3.10
2023-05-20T02:50:21.384Z,2.97
2023-05-20T02:50:33.518Z,2.88
2023-05-20T02:50:47.904Z,2.70
2023-05-20T02:51:00.215Z,2.80
2023-05-20T02:51:12.375Z,2.80
2023-05-20T02:51:24.624Z,3.03
2023-05-20T02:51:37.210Z,3.08
2023-05-20T02:51:49.308Z,2.75
2023-05-20T02:52:01.467Z,2.28
2023-05-20T02:52:13.536Z,2.20
2023-05-20T02:52:26.578Z,2.25
2023-05-20T02:52:39.894Z,2.25
2023-05-20T02:52:53.439Z,2.30
2023-05-20T02:53:05.553Z,2.67
2023-05-20T02:53:17.608Z,3.00
2023-05-20T02:53:29.726Z,3.00
2023-05-20T02:53:42.793Z,2.78